If you wish to contribute or participate in the discussions about articles you are invited to join SKYbrary as a registered user

 Actions

Sado Airport

From SKYbrary Wiki

RJSD
Airport
ICAO: RJSD – IATA: SDS
Summary
Name Sado Airport
Region Asia and Pacific
Territory Japan JP.gif
Location Ryotsu, Niigata Prefecture
Serving Sado
Elevation 22.86 m
75 ft22.86 m
Coordinates 38° 3' 44.37" N, 138° 24' 31.07" E
Runways
Designator Length Width Surface ROPS
10/28 1033 m3,389.108 ft
26 m85.302 ft
ASP /


METAR
Observation RJSD 210000Z AUTO 06003KT 020V090 9999 NSC 12/01 Q1013
Station Sado Airport
Date/Time 21 April 2019 00:00:00
Wind direction 60°
Wind speed 03 kts
Lowest cloud amount nil significant cloud
Temperature 12°C
Dew point 1°C
Humidity 46%
QNH 1013 hPa
Weather condition n/a

Sado Airport is a public aerodrome located 4 km2.16 nm
4,000 m
13,123.36 ft
southwest of Ryōtsu in Sado, Niigata Prefecture, Japan.

Climatology

Humid Sub-tropical climate (Köppen climate classification Cfa)

Maps

Terrain

Loading map...

Airport Layout

Loading map...


Accidents & Serious Incidents at or in vicinity of RJSD

None on SKYbrary